createdAt,value
2022-12-06T00:02:21.668Z,7.50
2022-12-06T00:04:48.057Z,5.35
2022-12-06T00:07:14.442Z,5.55
2022-12-06T00:09:40.905Z,3.92
2022-12-06T00:12:07.297Z,4.15
2022-12-06T00:14:33.655Z,4.25
2022-12-06T00:17:00.060Z,4.88
2022-12-06T00:19:29.413Z,4.13
2022-12-06T00:21:55.812Z,4.07
2022-12-06T00:24:22.785Z,3.50
2022-12-06T00:26:49.956Z,4.05
2022-12-06T00:29:21.444Z,3.85
2022-12-06T00:31:48.458Z,4.35
2022-12-06T00:34:14.867Z,3.38
2022-12-06T00:36:41.823Z,4.47
2022-12-06T00:39:15.617Z,3.65
2022-12-06T00:41:42.497Z,5.57
2022-12-06T00:44:09.226Z,3.25
2022-12-06T00:46:35.881Z,2.75
2022-12-06T00:49:03.147Z,2.67
2022-12-06T00:51:30.608Z,5.68
2022-12-06T00:53:57.147Z,5.60
2022-12-06T00:56:23.507Z,3.35
2022-12-06T00:58:49.858Z,4.82
2022-12-06T01:01:18.084Z,3.10
2022-12-06T01:03:45.279Z,3.45
2022-12-06T01:06:15.890Z,2.88
2022-12-06T01:08:42.768Z,1.77
2022-12-06T01:11:09.246Z,2.78
2022-12-06T01:13:35.803Z,4.05
2022-12-06T01:16:09.349Z,2.40
2022-12-06T01:18:35.756Z,3.67
2022-12-06T01:21:09.449Z,2.78
2022-12-06T01:23:36.199Z,3.28
2022-12-06T01:26:03.646Z,3.10
2022-12-06T01:28:30.195Z,4.90
2022-12-06T01:30:56.654Z,3.70
2022-12-06T01:33:23.143Z,3.22
2022-12-06T01:35:49.660Z,5.97
2022-12-06T01:38:16.030Z,4.38
2022-12-06T01:40:46.720Z,3.80
2022-12-06T01:43:31.501Z,4.20
2022-12-06T01:45:59.417Z,3.47
2022-12-06T01:48:26.439Z,3.00
2022-12-06T01:50:55.729Z,3.28
2022-12-06T01:53:25.717Z,3.45
2022-12-06T01:55:52.774Z,4.15
2022-12-06T01:58:23.656Z,4.40
2022-12-06T02:00:49.969Z,4.32
2022-12-06T02:03:19.137Z,3.60
2022-12-06T02:05:45.714Z,6.13
2022-12-06T02:08:13.222Z,3.45
2022-12-06T02:10:39.982Z,4.07
2022-12-06T02:13:06.982Z,4.07
2022-12-06T02:15:36.140Z,3.45
2022-12-06T02:18:08.598Z,4.22
2022-12-06T02:20:41.331Z,5.32
2022-12-06T02:23:10.820Z,4.43
2022-12-06T02:26:01.863Z,4.65
2022-12-06T02:28:37.642Z,4.75
2022-12-06T02:31:06.963Z,4.97
2022-12-06T02:33:36.418Z,4.25
2022-12-06T02:36:15.475Z,6.53
2022-12-06T02:38:57.272Z,3.88
2022-12-06T02:41:35.255Z,5.75
2022-12-06T02:44:04.145Z,5.55
2022-12-06T02:46:32.416Z,4.88
2022-12-06T02:48:59.941Z,5.65
2022-12-06T02:51:27.354Z,5.03
2022-12-06T02:53:56.349Z,5.05
2022-12-06T02:56:23.053Z,7.72
2022-12-06T02:58:49.447Z,5.57
2022-12-06T03:01:22.315Z,4.97
2022-12-06T03:03:54.384Z,5.82
2022-12-06T03:06:23.817Z,7.10
2022-12-06T03:09:22.546Z,5.88
2022-12-06T03:11:55.462Z,6.50
2022-12-06T03:14:23.796Z,5.47
2022-12-06T03:16:54.008Z,6.93
2022-12-06T03:19:21.815Z,5.55
2022-12-06T03:21:53.812Z,8.15
2022-12-06T03:24:21.374Z,8.10
2022-12-06T03:26:48.747Z,6.43
2022-12-06T03:29:16.893Z,5.97
2022-12-06T03:31:44.353Z,6.60
2022-12-06T03:34:13.875Z,6.00
2022-12-06T03:36:41.432Z,6.70
2022-12-06T03:39:08.937Z,4.70
2022-12-06T03:41:48.409Z,5.85
2022-12-06T03:44:14.863Z,5.55
2022-12-06T03:46:43.570Z,5.45
2022-12-06T03:49:31.220Z,5.82
2022-12-06T03:51:57.897Z,6.47
2022-12-06T03:54:24.461Z,6.75
2022-12-06T03:56:50.783Z,7.95
2022-12-06T03:59:17.211Z,6.65
2022-12-06T04:01:43.611Z,6.25
2022-12-06T04:04:10.513Z,5.28
2022-12-06T04:06:37.062Z,5.20
2022-12-06T04:09:24.529Z,6.30
2022-12-06T04:11:51.206Z,6.35
2022-12-06T04:14:17.703Z,6.80
2022-12-06T04:17:02.569Z,6.15
2022-12-06T04:19:28.942Z,5.50
2022-12-06T04:22:13.906Z,6.32
2022-12-06T04:24:40.486Z,8.73
2022-12-06T04:27:25.260Z,6.57
2022-12-06T04:30:10.316Z,7.03
2022-12-06T04:32:55.148Z,7.50
2022-12-06T04:35:40.088Z,10.25
2022-12-06T04:38:24.828Z,9.45
2022-12-06T04:40:51.390Z,8.88
2022-12-06T04:43:36.129Z,7.10
2022-12-06T04:46:02.582Z,7.97
2022-12-06T04:48:28.919Z,6.78
2022-12-06T04:50:55.253Z,8.63
2022-12-06T04:53:21.655Z,11.15
2022-12-06T04:55:48.470Z,8.68
2022-12-06T04:58:14.999Z,11.25
2022-12-06T05:00:44.641Z,11.27
2022-12-06T05:03:11.895Z,7.70
2022-12-06T05:05:38.388Z,7.82
2022-12-06T05:08:04.947Z,9.32
2022-12-06T05:10:31.777Z,10.07
2022-12-06T05:12:58.320Z,8.93
2022-12-06T05:15:29.012Z,8.82
2022-12-06T05:17:55.756Z,11.43
2022-12-06T05:20:22.305Z,10.70
2022-12-06T05:22:48.699Z,11.18
2022-12-06T05:25:16.769Z,10.25
2022-12-06T05:27:43.471Z,10.63
2022-12-06T05:30:10.107Z,12.15
2022-12-06T05:32:37.959Z,11.20
2022-12-06T05:35:06.078Z,10.20
2022-12-06T05:37:32.445Z,13.10
2022-12-06T05:39:59.062Z,14.85
2022-12-06T05:42:26.287Z,14.73
2022-12-06T05:44:52.847Z,12.93
2022-12-06T05:47:19.174Z,10.70
2022-12-06T05:49:45.514Z,12.75
2022-12-06T05:52:12.037Z,13.85
2022-12-06T05:54:38.339Z,13.90
2022-12-06T05:57:04.680Z,15.25
2022-12-06T05:59:31.051Z,15.07
2022-12-06T06:01:57.484Z,15.60
2022-12-06T06:04:23.899Z,13.57
2022-12-06T06:06:51.428Z,13.32
2022-12-06T06:09:19.221Z,14.85
2022-12-06T06:11:45.573Z,17.02
2022-12-06T06:14:11.868Z,15.27
2022-12-06T06:16:38.300Z,16.73
2022-12-06T06:19:04.705Z,16.17
2022-12-06T06:21:31.075Z,17.85
2022-12-06T06:23:57.667Z,14.50
2022-12-06T06:26:23.997Z,15.80
2022-12-06T06:28:50.402Z,16.10
2022-12-06T06:31:16.854Z,14.25
2022-12-06T06:33:43.192Z,13.00
2022-12-06T06:36:09.842Z,15.57
2022-12-06T06:38:36.380Z,14.10
2022-12-06T06:41:03.373Z,12.05
2022-12-06T06:43:30.447Z,15.07
2022-12-06T06:45:58.490Z,15.98
2022-12-06T06:48:25.845Z,13.38
2022-12-06T06:50:57.030Z,11.20
2022-12-06T06:53:26.379Z,17.40
2022-12-06T06:55:53.939Z,14.07
2022-12-06T06:58:20.330Z,13.35
2022-12-06T07:00:46.729Z,13.95
2022-12-06T07:03:15.130Z,13.20
2022-12-06T07:05:43.513Z,14.00
2022-12-06T07:08:10.489Z,18.00
2022-12-06T07:10:36.861Z,14.25
2022-12-06T07:13:03.201Z,15.40
2022-12-06T07:15:29.513Z,11.15
2022-12-06T07:17:55.820Z,11.20
2022-12-06T07:20:22.260Z,11.63
2022-12-06T07:22:48.581Z,13.35
2022-12-06T07:25:15.128Z,12.70
2022-12-06T07:27:41.494Z,11.60
2022-12-06T07:30:08.335Z,11.63
2022-12-06T07:32:36.801Z,11.80
2022-12-06T07:35:03.543Z,13.48
2022-12-06T07:37:30.250Z,8.35
2022-12-06T07:39:56.632Z,14.45
2022-12-06T07:42:41.485Z,11.85
2022-12-06T07:45:08.852Z,13.55
2022-12-06T07:47:36.411Z,15.60
2022-12-06T07:50:03.697Z,15.68
2022-12-06T07:52:30.918Z,16.30
2022-12-06T07:54:57.227Z,12.95
2022-12-06T07:57:23.619Z,15.73
2022-12-06T07:59:49.936Z,21.15
2022-12-06T08:02:21.051Z,18.73
2022-12-06T08:04:47.508Z,18.10
2022-12-06T08:07:14.866Z,16.58
2022-12-06T08:09:41.361Z,18.70
2022-12-06T08:12:08.443Z,16.10
2022-12-06T08:14:35.149Z,13.25
2022-12-06T08:17:01.628Z,17.90
2022-12-06T08:19:27.968Z,19.25
2022-12-06T08:21:54.311Z,18.35
2022-12-06T08:24:20.692Z,15.45
2022-12-06T08:26:47.498Z,14.82
2022-12-06T08:29:14.014Z,19.40
2022-12-06T08:31:40.870Z,23.60
2022-12-06T08:34:07.820Z,17.38
2022-12-06T08:36:34.131Z,19.42
2022-12-06T08:39:00.896Z,19.70
2022-12-06T08:41:45.786Z,19.88
2022-12-06T08:44:12.879Z,17.98
2022-12-06T08:46:39.278Z,14.90
2022-12-06T08:49:05.952Z,17.00
2022-12-06T08:51:35.311Z,18.80
2022-12-06T08:54:02.053Z,15.23
2022-12-06T08:56:28.498Z,17.20
2022-12-06T08:58:55.291Z,18.30
2022-12-06T09:01:37.338Z,16.00
2022-12-06T09:04:05.415Z,21.92
2022-12-06T09:06:32.016Z,19.02
2022-12-06T09:08:58.569Z,20.38
2022-12-06T09:11:25.960Z,19.85
2022-12-06T09:13:52.352Z,19.35
2022-12-06T09:16:20.253Z,18.55
2022-12-06T09:18:47.336Z,20.20
2022-12-06T09:21:15.443Z,19.70
2022-12-06T09:23:41.824Z,21.85
2022-12-06T09:26:08.501Z,18.40
2022-12-06T09:28:35.622Z,18.83
2022-12-06T09:31:02.803Z,18.40
2022-12-06T09:33:29.237Z,20.17
2022-12-06T09:35:55.923Z,17.02
2022-12-06T09:38:24.108Z,17.17
2022-12-06T09:40:56.544Z,16.95
2022-12-06T09:43:35.015Z,15.57
2022-12-06T09:46:01.470Z,18.77
2022-12-06T09:48:53.658Z,18.17
2022-12-06T09:51:46.630Z,18.05
2022-12-06T09:54:33.737Z,22.33
2022-12-06T09:57:08.235Z,18.42
2022-12-06T09:59:40.708Z,14.40
2022-12-06T10:02:16.490Z,17.35
2022-12-06T10:04:45.663Z,16.73
2022-12-06T10:07:12.207Z,16.45
2022-12-06T10:09:38.479Z,19.85
2022-12-06T10:12:19.564Z,16.83
2022-12-06T10:15:08.941Z,19.08
2022-12-06T10:17:41.742Z,17.75
2022-12-06T10:20:10.869Z,14.57
2022-12-06T10:22:56.012Z,17.33
2022-12-06T10:25:25.852Z,14.10
2022-12-06T10:28:06.963Z,14.82
2022-12-06T10:30:34.864Z,17.15
2022-12-06T10:33:12.519Z,14.13
2022-12-06T10:35:50.623Z,17.15
2022-12-06T10:38:19.953Z,14.98
2022-12-06T10:40:51.430Z,15.55
2022-12-06T10:43:28.058Z,17.65
2022-12-06T10:46:33.519Z,16.73
2022-12-06T10:49:18.880Z,17.85
2022-12-06T10:52:08.197Z,17.35
2022-12-06T10:54:34.504Z,16.65
2022-12-06T10:57:04.746Z,18.25
2022-12-06T10:59:44.320Z,18.52
2022-12-06T11:02:29.598Z,19.27
2022-12-06T11:04:58.308Z,20.30
2022-12-06T11:07:25.973Z,19.52
2022-12-06T11:09:53.628Z,17.65
2022-12-06T11:12:36.100Z,20.45
2022-12-06T11:15:21.387Z,20.85
2022-12-06T11:17:50.777Z,17.65
2022-12-06T11:20:17.169Z,21.92
2022-12-06T11:22:53.469Z,22.63
2022-12-06T11:25:19.881Z,21.45
2022-12-06T11:27:54.263Z,23.05
2022-12-06T11:30:21.225Z,19.92
2022-12-06T11:32:49.702Z,21.63
2022-12-06T11:35:18.698Z,24.13
2022-12-06T11:37:45.690Z,23.58
2022-12-06T11:40:41.467Z,20.77
2022-12-06T11:43:09.297Z,23.60
2022-12-06T11:45:38.084Z,19.40
2022-12-06T11:48:13.202Z,19.95
2022-12-06T11:50:41.539Z,19.52
2022-12-06T11:53:15.573Z,21.98
2022-12-06T11:55:47.041Z,20.00
2022-12-06T11:58:32.829Z,21.70
2022-12-06T12:03:28.267Z,20.15
2022-12-06T12:06:06.767Z,19.95
2022-12-06T12:08:33.299Z,21.00
2022-12-06T12:11:01.204Z,19.10
2022-12-06T12:13:48.296Z,21.55
2022-12-06T12:16:23.122Z,19.65
2022-12-06T12:18:51.433Z,12.20
2022-12-06T12:21:27.929Z,15.98
2022-12-06T12:23:54.318Z,16.17
2022-12-06T12:26:21.712Z,16.90
2022-12-06T12:29:06.056Z,17.48
2022-12-06T12:31:35.104Z,15.93
2022-12-06T12:34:18.298Z,15.75
2022-12-06T12:36:49.448Z,17.25
2022-12-06T12:39:23.698Z,17.45
2022-12-06T12:41:50.103Z,18.85
2022-12-06T12:44:37.115Z,16.60
2022-12-06T12:47:06.200Z,16.50
2022-12-06T12:49:33.872Z,14.65
2022-12-06T12:52:01.446Z,17.42
2022-12-06T12:54:31.095Z,14.77
2022-12-06T12:56:58.966Z,15.88
2022-12-06T12:59:26.817Z,16.05
2022-12-06T13:02:01.293Z,14.32
2022-12-06T13:04:36.810Z,15.67
2022-12-06T13:07:07.853Z,15.65
2022-12-06T13:10:06.645Z,15.95
2022-12-06T13:12:41.556Z,17.65
2022-12-06T13:15:11.224Z,13.48
2022-12-06T13:17:38.706Z,15.15
2022-12-06T13:20:18.735Z,13.52
2022-12-06T13:22:47.174Z,13.43
2022-12-06T13:25:13.522Z,13.90
2022-12-06T13:27:41.972Z,12.82
2022-12-06T13:30:15.473Z,13.05
2022-12-06T13:32:53.048Z,12.48
2022-12-06T13:35:30.071Z,15.48
2022-12-06T13:37:57.799Z,10.93
2022-12-06T13:40:33.095Z,13.85
2022-12-06T13:43:03.518Z,11.68
2022-12-06T13:45:41.397Z,11.43
2022-12-06T13:48:26.122Z,14.18
2022-12-06T13:50:54.820Z,12.00
2022-12-06T13:53:22.534Z,11.38
2022-12-06T13:55:53.484Z,14.88
2022-12-06T13:58:26.893Z,13.00
2022-12-06T14:00:54.605Z,12.48
2022-12-06T14:03:20.940Z,14.10
2022-12-06T14:08:23.468Z,13.70
2022-12-06T14:10:49.891Z,13.00
2022-12-06T14:13:17.284Z,15.10
2022-12-06T14:15:48.074Z,14.48
2022-12-06T14:18:18.804Z,16.27
2022-12-06T14:20:47.293Z,12.95
2022-12-06T14:23:24.136Z,15.52
2022-12-06T14:25:50.507Z,16.38
2022-12-06T14:28:18.863Z,13.93
2022-12-06T14:30:46.227Z,14.40
2022-12-06T14:33:22.271Z,14.38
2022-12-06T14:35:50.157Z,14.10
2022-12-06T14:38:27.645Z,14.18
2022-12-06T14:41:12.675Z,13.32
2022-12-06T14:43:40.041Z,14.05
2022-12-06T14:46:07.746Z,14.80
2022-12-06T14:48:53.342Z,13.70
2022-12-06T14:51:23.378Z,16.23
2022-12-06T14:53:50.241Z,13.63
2022-12-06T14:56:22.400Z,13.73
2022-12-06T14:58:48.925Z,13.90
2022-12-06T15:01:19.811Z,14.93
2022-12-06T15:03:56.462Z,13.38
2022-12-06T15:06:24.217Z,13.95
2022-12-06T15:08:56.707Z,13.10
2022-12-06T15:11:41.830Z,12.15
2022-12-06T15:14:17.104Z,14.57
2022-12-06T15:16:45.000Z,12.00
2022-12-06T15:19:12.638Z,13.50
2022-12-06T15:21:39.112Z,14.23
2022-12-06T15:24:14.303Z,11.55
2022-12-06T15:26:40.670Z,15.38
2022-12-06T15:29:07.057Z,14.55
2022-12-06T15:31:33.765Z,14.32
2022-12-06T15:34:00.205Z,13.35
2022-12-06T15:36:31.016Z,11.82
2022-12-06T15:38:57.693Z,14.00
2022-12-06T15:41:25.900Z,12.32
2022-12-06T15:43:53.433Z,15.23
2022-12-06T15:46:21.154Z,13.75
2022-12-06T15:48:47.556Z,11.43
2022-12-06T15:51:20.186Z,12.80
2022-12-06T15:53:47.851Z,13.45
2022-12-06T15:56:15.056Z,11.50
2022-12-06T15:58:45.503Z,11.07
2022-12-06T16:01:16.430Z,11.77
2022-12-06T16:03:42.904Z,12.68
2022-12-06T16:06:13.410Z,13.68
2022-12-06T16:08:40.167Z,12.02
2022-12-06T16:11:13.812Z,12.02
2022-12-06T16:13:40.640Z,12.35
2022-12-06T16:16:07.377Z,13.23
2022-12-06T16:18:33.773Z,11.02
2022-12-06T16:21:00.564Z,12.60
2022-12-06T16:26:34.360Z,13.05
2022-12-06T16:29:01.866Z,13.95
2022-12-06T16:31:28.755Z,11.45
2022-12-06T16:33:55.541Z,16.17
2022-12-06T16:36:23.471Z,12.43
2022-12-06T16:38:54.226Z,8.80
2022-12-06T16:41:20.656Z,10.43
2022-12-06T16:43:47.036Z,11.52
2022-12-06T16:46:25.561Z,8.25
2022-12-06T16:48:55.578Z,8.80
2022-12-06T16:51:22.707Z,9.75
2022-12-06T16:53:49.727Z,9.20
2022-12-06T16:56:16.085Z,8.80
2022-12-06T16:58:42.443Z,9.30
2022-12-06T17:01:41.402Z,7.68
2022-12-06T17:04:11.437Z,9.00
2022-12-06T17:06:37.995Z,8.88
2022-12-06T17:09:04.846Z,8.50
2022-12-06T17:11:51.217Z,7.95
2022-12-06T17:14:18.384Z,8.90
2022-12-06T17:16:45.377Z,7.40
2022-12-06T17:19:18.274Z,8.30
2022-12-06T17:21:45.400Z,7.25
2022-12-06T17:24:11.782Z,8.40
2022-12-06T17:26:38.475Z,12.20
2022-12-06T17:29:04.856Z,10.02
2022-12-06T17:31:31.655Z,11.68
2022-12-06T17:33:58.438Z,11.13
2022-12-06T17:36:25.728Z,10.45
2022-12-06T17:38:52.638Z,9.20
2022-12-06T17:41:39.000Z,8.43
2022-12-06T17:44:05.948Z,8.50
2022-12-06T17:46:32.579Z,11.40
2022-12-06T17:48:59.132Z,7.32
2022-12-06T17:51:26.854Z,7.68
2022-12-06T17:53:53.515Z,8.02
2022-12-06T17:56:28.895Z,7.43
2022-12-06T18:01:22.205Z,7.50
2022-12-06T18:03:52.265Z,7.50
2022-12-06T18:06:19.924Z,9.02
2022-12-06T18:08:46.496Z,7.55
2022-12-06T18:11:12.970Z,11.07
2022-12-06T18:13:39.292Z,10.50
2022-12-06T18:16:16.385Z,9.57
2022-12-06T18:18:43.426Z,10.60
2022-12-06T18:21:10.744Z,12.23
2022-12-06T18:23:40.952Z,10.55
2022-12-06T18:26:15.323Z,11.07
2022-12-06T18:28:45.650Z,8.95
2022-12-06T18:31:12.536Z,9.13
2022-12-06T18:33:40.136Z,8.57
2022-12-06T18:36:06.710Z,10.10
2022-12-06T18:38:33.098Z,11.45
2022-12-06T18:41:09.869Z,10.38
2022-12-06T18:43:36.451Z,10.82
2022-12-06T18:46:04.971Z,9.52
2022-12-06T18:48:31.985Z,8.35
2022-12-06T18:50:58.400Z,8.10
2022-12-06T18:53:25.012Z,9.95
2022-12-06T18:55:51.366Z,10.02
2022-12-06T18:58:17.745Z,12.68
2022-12-06T19:00:45.375Z,12.73
2022-12-06T19:03:12.404Z,11.82
2022-12-06T19:06:01.865Z,11.75
2022-12-06T19:08:25.370Z,15.48
2022-12-06T19:10:51.772Z,14.10
2022-12-06T19:13:18.172Z,12.48
2022-12-06T19:15:44.499Z,14.05
2022-12-06T19:18:13.452Z,15.27
2022-12-06T19:20:39.823Z,15.98
2022-12-06T19:23:06.162Z,15.55
2022-12-06T19:25:32.462Z,14.57
2022-12-06T19:27:58.801Z,15.00
2022-12-06T19:30:25.165Z,18.88
2022-12-06T19:32:51.493Z,15.35
2022-12-06T19:35:17.866Z,15.00
2022-12-06T19:37:44.186Z,14.55
2022-12-06T19:40:11.182Z,17.23
2022-12-06T19:42:55.839Z,15.90
2022-12-06T19:45:23.711Z,20.73
2022-12-06T19:47:50.065Z,17.23
2022-12-06T19:50:16.609Z,17.58
2022-12-06T19:52:42.954Z,18.83
2022-12-06T19:55:09.373Z,17.67
2022-12-06T19:57:35.883Z,16.60
2022-12-06T20:00:02.620Z,17.40
2022-12-06T20:02:29.258Z,17.83
2022-12-06T20:04:55.659Z,19.25
2022-12-06T20:07:22.051Z,18.35
2022-12-06T20:09:48.455Z,17.58
2022-12-06T20:12:14.867Z,18.98
2022-12-06T20:14:45.639Z,13.05
2022-12-06T20:17:15.332Z,15.80
2022-12-06T20:19:43.231Z,14.27
2022-12-06T20:22:10.247Z,13.27
2022-12-06T20:24:36.658Z,13.38
2022-12-06T20:27:03.164Z,12.85
2022-12-06T20:29:30.391Z,12.55
2022-12-06T20:32:00.179Z,15.68
2022-12-06T20:34:29.320Z,11.82
2022-12-06T20:36:56.270Z,11.45
2022-12-06T20:39:23.919Z,12.18
2022-12-06T20:41:50.639Z,12.93
2022-12-06T20:44:17.508Z,10.15
2022-12-06T20:46:44.235Z,12.10
2022-12-06T20:49:10.685Z,14.20
2022-12-06T20:51:37.019Z,11.52
2022-12-06T20:54:04.518Z,11.57
2022-12-06T20:56:32.378Z,14.65
2022-12-06T20:58:59.460Z,12.15
2022-12-06T21:01:27.177Z,11.88
2022-12-06T21:03:54.501Z,12.43
2022-12-06T21:06:21.567Z,11.50
2022-12-06T21:08:47.989Z,15.75
2022-12-06T21:11:22.519Z,13.07
2022-12-06T21:13:50.514Z,13.50
2022-12-06T21:16:18.692Z,15.63
2022-12-06T21:18:46.469Z,14.80
2022-12-06T21:21:21.468Z,16.65
2022-12-06T21:23:47.849Z,17.55
2022-12-06T21:26:14.193Z,12.45
2022-12-06T21:28:40.586Z,14.73
2022-12-06T21:31:06.980Z,16.80
2022-12-06T21:33:33.357Z,13.65
2022-12-06T21:36:06.098Z,12.88
2022-12-06T21:38:35.021Z,13.50
2022-12-06T21:41:05.129Z,13.02
2022-12-06T21:43:31.571Z,12.25
2022-12-06T21:46:02.242Z,18.08
2022-12-06T21:48:28.597Z,15.10
2022-12-06T21:51:01.784Z,18.17
2022-12-06T21:53:28.253Z,20.33
2022-12-06T21:55:54.607Z,18.98
2022-12-06T21:58:20.962Z,22.55
2022-12-06T22:00:47.292Z,25.08
2022-12-06T22:03:16.365Z,23.80
2022-12-06T22:05:47.491Z,24.60
2022-12-06T22:08:14.029Z,29.08
2022-12-06T22:10:41.422Z,34.55
2022-12-06T22:13:07.878Z,36.80
2022-12-06T22:15:34.230Z,32.05
2022-12-06T22:18:00.577Z,31.75
2022-12-06T22:20:26.975Z,33.63
2022-12-06T22:22:53.499Z,32.47
2022-12-06T22:25:19.935Z,39.65
2022-12-06T22:27:46.273Z,34.58
2022-12-06T22:30:13.900Z,35.03
2022-12-06T22:32:40.201Z,34.20
2022-12-06T22:35:06.871Z,35.13
2022-12-06T22:37:33.208Z,31.98
2022-12-06T22:39:59.894Z,35.80
2022-12-06T22:42:26.640Z,36.08
2022-12-06T22:44:53.046Z,39.05
2022-12-06T22:47:19.432Z,34.55
2022-12-06T22:49:45.836Z,38.60
2022-12-06T22:52:12.222Z,39.15
2022-12-06T22:54:38.524Z,36.35
2022-12-06T22:57:04.883Z,36.63
2022-12-06T22:59:31.194Z,35.08
2022-12-06T23:01:57.637Z,37.10
2022-12-06T23:04:24.088Z,36.22
2022-12-06T23:06:51.004Z,32.00
2022-12-06T23:09:17.506Z,36.33
2022-12-06T23:11:43.993Z,35.47
2022-12-06T23:14:11.135Z,35.67
2022-12-06T23:16:37.706Z,31.98
2022-12-06T23:19:04.690Z,29.95
2022-12-06T23:21:32.150Z,28.77
2022-12-06T23:24:02.460Z,32.20
2022-12-06T23:26:36.543Z,25.77
2022-12-06T23:29:03.388Z,25.90
2022-12-06T23:31:33.012Z,26.25
2022-12-06T23:34:14.633Z,26.80
2022-12-06T23:36:41.410Z,22.15
2022-12-06T23:39:07.810Z,27.55
2022-12-06T23:41:34.415Z,28.67
2022-12-06T23:44:00.955Z,28.38
2022-12-06T23:46:28.751Z,33.90
2022-12-06T23:48:55.487Z,32.17
2022-12-06T23:51:23.532Z,31.95
2022-12-06T23:53:51.137Z,36.30
2022-12-06T23:56:18.734Z,33.05
2022-12-06T23:58:45.211Z,32.38
